Time;durP1;ratioP1;P1;durP2;ratioP2;P2;SDS_P1;SDS_P2;PMS_P1;PMS_P2;Temp;Humidity;BMP_temperature;BMP_pressure;BME280_temperature;BME280_humidity;BME280_pressure;Samples;Min_cycle;Max_cycle;Signal;HPM_P1;HPM_P2
2022/08/19 00:01:43;;;;;;;16.97;15.27;;;;;;;;;;10392934;28;20265;-72
2022/08/19 00:06:45;;;;;;;15.87;14.37;;;;;;;;;;10410482;28;20224;-72
2022/08/19 00:11:49;;;;;;;15.27;13.70;;;;;;;;;;10399506;28;20631;-74
2022/08/19 00:16:57;;;;;;;16.53;14.90;;;;;;;;;;10392645;28;20235;-72
2022/08/19 00:21:58;;;;;;;15.53;14.13;;;;;;;;;;10416658;28;20371;-72
2022/08/19 00:26:59;;;;;;;16.43;14.73;;;;;;;;;;10396158;28;20325;-72
2022/08/19 00:32:00;;;;;;;15.47;14.07;;;;;;;;;;10389719;28;20230;-71
2022/08/19 00:37:01;;;;;;;15.97;14.47;;;;;;;;;;10399142;28;20239;-73
2022/08/19 00:42:02;;;;;;;15.10;13.60;;;;;;;;;;10411956;28;20227;-71
2022/08/19 00:47:03;;;;;;;16.70;15.10;;;;;;;;;;10398063;28;20231;-71
2022/08/19 00:52:04;;;;;;;17.57;15.87;;;;;;;;;;10405256;28;20602;-71
2022/08/19 00:57:07;;;;;;;16.33;14.73;;;;;;;;;;10405689;28;20246;-71
2022/08/19 01:02:09;;;;;;;15.63;13.97;;;;;;;;;;10397665;28;20754;-70
2022/08/19 01:07:10;;;;;;;15.67;14.10;;;;;;;;;;10407451;28;20240;-70
2022/08/19 01:12:11;;;;;;;15.67;14.07;;;;;;;;;;10415591;28;20262;-71
2022/08/19 01:17:12;;;;;;;15.23;13.73;;;;;;;;;;10411935;28;20236;-74
2022/08/19 01:22:16;;;;;;;14.00;12.77;;;;;;;;;;10408360;28;20244;-74
2022/08/19 01:27:18;;;;;;;14.57;13.17;;;;;;;;;;10414244;28;20228;-70
2022/08/19 01:32:20;;;;;;;15.80;14.27;;;;;;;;;;10412055;28;20293;-69
2022/08/19 01:37:21;;;;;;;14.83;13.43;;;;;;;;;;10404913;28;20332;-71
2022/08/19 01:42:22;;;;;;;16.07;14.47;;;;;;;;;;10394695;28;20901;-72
2022/08/19 01:47:23;;;;;;;15.20;13.70;;;;;;;;;;10393276;28;20776;-70
2022/08/19 01:52:24;;;;;;;14.27;12.97;;;;;;;;;;10404049;28;20226;-70
2022/08/19 01:57:25;;;;;;;15.47;13.93;;;;;;;;;;10412620;28;20235;-71
2022/08/19 02:02:26;;;;;;;15.47;14.00;;;;;;;;;;10406720;28;20224;-72
2022/08/19 02:07:29;;;;;;;14.57;13.27;;;;;;;;;;10392281;28;20712;-71
2022/08/19 02:12:31;;;;;;;15.17;13.67;;;;;;;;;;10408718;28;20228;-72
2022/08/19 02:17:32;;;;;;;15.10;13.60;;;;;;;;;;10398601;28;20710;-73
2022/08/19 02:22:33;;;;;;;15.30;13.80;;;;;;;;;;10397007;28;20318;-72
2022/08/19 02:27:34;;;;;;;15.67;13.87;;;;;;;;;;10411206;28;20238;-72
2022/08/19 02:32:35;;;;;;;16.17;14.60;;;;;;;;;;10394026;28;20254;-71
2022/08/19 02:42:56;;;;;;;15.13;13.73;;;;;;;;;;10405682;28;20214;-73
2022/08/19 02:47:57;;;;;;;16.50;14.90;;;;;;;;;;10404260;28;20231;-72
2022/08/19 02:52:58;;;;;;;16.57;14.97;;;;;;;;;;10411223;28;20693;-73
2022/08/19 02:58:02;;;;;;;15.57;14.07;;;;;;;;;;10395592;28;20729;-72
2022/08/19 03:03:03;;;;;;;15.77;14.27;;;;;;;;;;10395632;28;20709;-72
2022/08/19 03:08:05;;;;;;;15.70;14.07;;;;;;;;;;10402590;28;20278;-72
2022/08/19 03:13:06;;;;;;;17.17;15.50;;;;;;;;;;10394594;28;20273;-72
2022/08/19 03:18:07;;;;;;;16.97;14.73;;;;;;;;;;10404191;28;20290;-72
2022/08/19 03:23:08;;;;;;;15.90;14.30;;;;;;;;;;10389500;28;20254;-70
2022/08/19 03:28:13;;;;;;;15.87;13.97;;;;;;;;;;10399972;28;20298;-70
2022/08/19 03:33:14;;;;;;;15.67;14.27;;;;;;;;;;10392605;28;20218;-72
2022/08/19 03:38:15;;;;;;;15.93;14.33;;;;;;;;;;10397309;28;20597;-71
2022/08/19 03:43:17;;;;;;;16.07;14.57;;;;;;;;;;10410737;28;20219;-72
2022/08/19 03:48:18;;;;;;;16.27;14.73;;;;;;;;;;10416172;28;20228;-72
2022/08/19 03:53:19;;;;;;;15.87;14.37;;;;;;;;;;10410194;28;20226;-72
2022/08/19 03:58:21;;;;;;;16.57;14.97;;;;;;;;;;10394292;28;20222;-71
2022/08/19 04:03:23;;;;;;;16.13;14.53;;;;;;;;;;10397960;28;20247;-72
2022/08/19 04:08:26;;;;;;;17.10;14.43;;;;;;;;;;10410850;28;20220;-71
2022/08/19 04:13:27;;;;;;;16.73;15.13;;;;;;;;;;10402180;28;20227;-69
2022/08/19 04:18:30;;;;;;;16.13;14.63;;;;;;;;;;10414497;28;20207;-71
2022/08/19 04:23:31;;;;;;;16.77;15.07;;;;;;;;;;10401138;28;20334;-71
2022/08/19 04:28:32;;;;;;;16.80;15.20;;;;;;;;;;10415635;28;20215;-71
2022/08/19 04:33:33;;;;;;;18.37;16.40;;;;;;;;;;10414678;28;20306;-67
2022/08/19 04:38:34;;;;;;;18.57;16.57;;;;;;;;;;10410219;28;20306;-67
2022/08/19 04:43:36;;;;;;;18.37;16.37;;;;;;;;;;10414083;28;20215;-66
2022/08/19 04:48:37;;;;;;;17.50;15.80;;;;;;;;;;10413909;28;20652;-67
2022/08/19 04:53:39;;;;;;;17.87;16.10;;;;;;;;;;10403504;28;20641;-67
2022/08/19 04:58:42;;;;;;;17.60;15.93;;;;;;;;;;10395648;28;20776;-67
2022/08/19 05:03:43;;;;;;;17.70;15.87;;;;;;;;;;10404992;28;20228;-67
2022/08/19 05:08:44;;;;;;;18.47;16.57;;;;;;;;;;10402959;28;20714;-66
2022/08/19 05:13:48;;;;;;;16.77;15.07;;;;;;;;;;10413940;28;20231;-69
2022/08/19 05:24:12;;;;;;;17.47;15.60;;;;;;;;;;10392661;28;20302;-70
2022/08/19 05:29:14;;;;;;;16.37;14.60;;;;;;;;;;10386049;28;20310;-71
2022/08/19 05:34:16;;;;;;;17.40;15.60;;;;;;;;;;10396926;28;20277;-70
2022/08/19 05:39:20;;;;;;;15.37;13.80;;;;;;;;;;10389471;28;20273;-71
2022/08/19 05:44:21;;;;;;;15.37;13.83;;;;;;;;;;10394701;28;20228;-71
2022/08/19 05:49:23;;;;;;;15.33;13.93;;;;;;;;;;10396748;28;20732;-69
2022/08/19 05:54:24;;;;;;;16.10;14.60;;;;;;;;;;10391655;28;20307;-71
2022/08/19 05:59:25;;;;;;;15.77;14.17;;;;;;;;;;10402488;28;20228;-69
2022/08/19 06:04:26;;;;;;;14.10;12.70;;;;;;;;;;10399636;28;20219;-70
2022/08/19 06:09:28;;;;;;;13.97;12.20;;;;;;;;;;10394715;28;20267;-70
2022/08/19 06:14:31;;;;;;;12.57;11.30;;;;;;;;;;10397095;28;20229;-70
2022/08/19 06:19:32;;;;;;;12.43;11.13;;;;;;;;;;10388663;28;20225;-70
2022/08/19 06:24:33;;;;;;;11.73;10.07;;;;;;;;;;10401161;28;20217;-71
2022/08/19 06:29:34;;;;;;;9.93;9.03;;;;;;;;;;10388340;28;20292;-70
2022/08/19 06:34:36;;;;;;;9.80;8.90;;;;;;;;;;10392827;28;20273;-70
2022/08/19 06:39:38;;;;;;;10.47;8.50;;;;;;;;;;10393376;28;20213;-72
2022/08/19 06:44:40;;;;;;;9.33;8.53;;;;;;;;;;10397033;28;20220;-72
2022/08/19 06:49:41;;;;;;;10.03;9.03;;;;;;;;;;10391133;28;20224;-71
2022/08/19 06:54:42;;;;;;;9.20;8.30;;;;;;;;;;10392811;28;20239;-71
2022/08/19 06:59:43;;;;;;;9.30;8.50;;;;;;;;;;10389273;28;20225;-71
2022/08/19 07:04:44;;;;;;;8.37;7.47;;;;;;;;;;10400297;28;20228;-69
2022/08/19 07:09:45;;;;;;;10.40;7.97;;;;;;;;;;10389949;28;20259;-70
2022/08/19 07:14:49;;;;;;;8.87;7.93;;;;;;;;;;10388153;28;20253;-70
2022/08/19 07:19:50;;;;;;;7.80;7.10;;;;;;;;;;10402417;28;20225;-71
2022/08/19 07:24:54;;;;;;;7.03;6.33;;;;;;;;;;10397388;28;20306;-71
2022/08/19 07:29:55;;;;;;;7.77;6.83;;;;;;;;;;10402025;28;20322;-71
2022/08/19 07:34:56;;;;;;;8.53;7.73;;;;;;;;;;10396136;28;20681;-71
2022/08/19 07:39:57;;;;;;;7.43;6.03;;;;;;;;;;10402636;28;20406;-71
2022/08/19 07:44:58;;;;;;;6.20;5.70;;;;;;;;;;10401965;28;20310;-70
2022/08/19 07:49:59;;;;;;;6.33;5.73;;;;;;;;;;10395605;28;20334;-71
2022/08/19 07:55:03;;;;;;;5.80;5.30;;;;;;;;;;10408649;28;20261;-70
2022/08/19 08:00:08;;;;;;;6.90;5.70;;;;;;;;;;10401569;28;20256;-71
2022/08/19 08:10:29;;;;;;;4.93;4.03;;;;;;;;;;10398565;28;20217;-72
2022/08/19 08:15:30;;;;;;;6.70;4.37;;;;;;;;;;10389035;28;20228;-71
2022/08/19 08:20:31;;;;;;;4.03;3.60;;;;;;;;;;10391947;28;20217;-71
2022/08/19 08:25:32;;;;;;;4.03;3.73;;;;;;;;;;10399800;28;20239;-71
2022/08/19 08:30:35;;;;;;;5.27;4.30;;;;;;;;;;10387905;28;20231;-70
2022/08/19 08:35:36;;;;;;;4.07;3.67;;;;;;;;;;10404702;28;20695;-71
2022/08/19 08:40:40;;;;;;;4.30;3.37;;;;;;;;;;10395282;28;20219;-70
2022/08/19 08:45:45;;;;;;;4.97;4.17;;;;;;;;;;10402190;28;20253;-70
2022/08/19 08:50:50;;;;;;;4.10;3.60;;;;;;;;;;10392481;28;20711;-71
2022/08/19 08:55:54;;;;;;;5.13;4.30;;;;;;;;;;10397555;28;20629;-72
2022/08/19 09:00:55;;;;;;;4.80;4.17;;;;;;;;;;10399127;28;20221;-72
2022/08/19 09:06:02;;;;;;;4.73;3.47;;;;;;;;;;10398366;28;20229;-72
2022/08/19 09:11:06;;;;;;;4.87;3.60;;;;;;;;;;10399744;28;20690;-72
2022/08/19 09:16:12;;;;;;;3.97;3.50;;;;;;;;;;10390880;28;20433;-70
2022/08/19 09:21:14;;;;;;;7.07;4.10;;;;;;;;;;10398310;28;20273;-72
2022/08/19 09:26:17;;;;;;;7.77;4.10;;;;;;;;;;10390931;28;20232;-73
2022/08/19 09:31:25;;;;;;;5.63;4.27;;;;;;;;;;10400023;28;20231;-71
2022/08/19 09:36:38;;;;;;;8.60;5.10;;;;;;;;;;10394216;28;20225;-72
2022/08/19 09:41:39;;;;;;;4.20;3.83;;;;;;;;;;10393807;28;20228;-71
2022/08/19 09:46:40;;;;;;;5.30;4.70;;;;;;;;;;10398959;28;20271;-72
2022/08/19 09:51:44;;;;;;;5.83;4.50;;;;;;;;;;10398337;28;20221;-71
2022/08/19 09:56:45;;;;;;;6.27;5.17;;;;;;;;;;10399283;28;20313;-71
2022/08/19 10:01:46;;;;;;;5.57;5.07;;;;;;;;;;10396220;28;20307;-70
2022/08/19 10:06:48;;;;;;;5.93;5.20;;;;;;;;;;10396350;28;20305;-71
2022/08/19 10:11:49;;;;;;;9.03;4.83;;;;;;;;;;10397453;28;20217;-71
2022/08/19 10:16:51;;;;;;;5.13;3.90;;;;;;;;;;10395564;28;20724;-72
2022/08/19 10:21:55;;;;;;;5.37;4.67;;;;;;;;;;10390574;28;20271;-70
2022/08/19 10:26:57;;;;;;;5.20;3.90;;;;;;;;;;10387519;28;20635;-72
2022/08/19 10:31:59;;;;;;;4.97;4.43;;;;;;;;;;10394116;28;20221;-72
2022/08/19 10:37:00;;;;;;;4.90;4.50;;;;;;;;;;10396865;28;20263;-71
2022/08/19 10:42:06;;;;;;;4.43;4.07;;;;;;;;;;10386005;28;20243;-71
2022/08/19 10:47:10;;;;;;;6.10;4.63;;;;;;;;;;10382586;28;20759;-71
2022/08/19 10:57:31;;;;;;;5.60;4.93;;;;;;;;;;10393025;28;20229;-70
2022/08/19 11:02:44;;;;;;;4.97;4.57;;;;;;;;;;10384029;28;20221;-72
2022/08/19 11:07:45;;;;;;;5.60;5.10;;;;;;;;;;10375380;28;20704;-71
2022/08/19 11:12:46;;;;;;;4.77;4.37;;;;;;;;;;10387365;28;20216;-70
2022/08/19 11:17:47;;;;;;;5.53;4.83;;;;;;;;;;10388148;28;20417;-69
2022/08/19 11:22:48;;;;;;;8.33;5.87;;;;;;;;;;10393050;28;20309;-72
2022/08/19 11:27:52;;;;;;;6.70;5.80;;;;;;;;;;10388562;28;20286;-71
2022/08/19 11:32:53;;;;;;;7.30;6.70;;;;;;;;;;10394061;28;20274;-70
2022/08/19 11:37:55;;;;;;;8.20;6.17;;;;;;;;;;10395028;28;20220;-71
2022/08/19 11:42:56;;;;;;;6.70;6.10;;;;;;;;;;10394978;28;20220;-71
2022/08/19 11:47:57;;;;;;;7.37;6.67;;;;;;;;;;10401890;28;20223;-71
2022/08/19 11:52:59;;;;;;;7.00;6.40;;;;;;;;;;10387324;28;20249;-71
2022/08/19 11:58:07;;;;;;;8.23;7.23;;;;;;;;;;10401980;28;20228;-71
2022/08/19 12:03:09;;;;;;;8.70;7.90;;;;;;;;;;10391303;28;20248;-72
2022/08/19 12:08:11;;;;;;;8.63;7.93;;;;;;;;;;10400465;28;20224;-71
2022/08/19 12:13:18;;;;;;;9.53;8.47;;;;;;;;;;10400209;28;20259;-70
2022/08/19 12:18:19;;;;;;;9.07;8.33;;;;;;;;;;10401410;28;20303;-72
2022/08/19 12:23:20;;;;;;;8.40;7.60;;;;;;;;;;10394009;28;20312;-70
2022/08/19 12:28:22;;;;;;;8.03;7.20;;;;;;;;;;10400118;28;20229;-69
2022/08/19 12:33:27;;;;;;;9.23;7.67;;;;;;;;;;10392076;28;20208;-70
2022/08/19 12:38:32;;;;;;;9.43;6.90;;;;;;;;;;10395817;28;20324;-71
2022/08/19 12:43:34;;;;;;;8.40;5.30;;;;;;;;;;10396262;28;20299;-71
2022/08/19 12:48:36;;;;;;;5.00;4.57;;;;;;;;;;10404040;28;20220;-72
2022/08/19 12:53:37;;;;;;;4.20;3.90;;;;;;;;;;10399244;28;20213;-71
2022/08/19 12:58:38;;;;;;;6.17;5.00;;;;;;;;;;10400070;28;20232;-72
2022/08/19 13:03:40;;;;;;;5.10;4.70;;;;;;;;;;10395156;28;20712;-70
2022/08/19 13:08:41;;;;;;;5.17;4.20;;;;;;;;;;10399793;28;20726;-71
2022/08/19 13:13:43;;;;;;;5.93;4.00;;;;;;;;;;10389797;28;20225;-71
2022/08/19 13:18:51;;;;;;;4.43;4.03;;;;;;;;;;10391414;28;20213;-70
2022/08/19 13:23:52;;;;;;;4.10;3.57;;;;;;;;;;10396919;28;20228;-70
2022/08/19 13:34:16;;;;;;;5.23;4.20;;;;;;;;;;10391386;28;20217;-73
2022/08/19 13:39:17;;;;;;;4.47;3.90;;;;;;;;;;10396357;28;20221;-72
2022/08/19 13:44:18;;;;;;;4.40;3.90;;;;;;;;;;10400162;28;20220;-72
2022/08/19 13:49:20;;;;;;;5.47;3.50;;;;;;;;;;10388455;28;20259;-71
2022/08/19 13:54:21;;;;;;;4.60;3.30;;;;;;;;;;10397238;28;20213;-71
2022/08/19 13:59:24;;;;;;;3.77;3.40;;;;;;;;;;10391586;28;20225;-72
2022/08/19 14:04:29;;;;;;;3.77;3.20;;;;;;;;;;10404232;28;20231;-71
2022/08/19 14:09:30;;;;;;;12.03;3.63;;;;;;;;;;10403551;28;20969;-71
2022/08/19 14:14:32;;;;;;;3.03;2.83;;;;;;;;;;10392704;28;20252;-71
2022/08/19 14:19:33;;;;;;;4.23;3.00;;;;;;;;;;10392759;28;20240;-71
2022/08/19 14:24:34;;;;;;;5.20;2.80;;;;;;;;;;10396581;28;20228;-72
2022/08/19 14:29:39;;;;;;;3.73;3.20;;;;;;;;;;10399694;28;20680;-71
2022/08/19 14:34:42;;;;;;;7.40;3.10;;;;;;;;;;10382082;28;20244;-72
2022/08/19 14:39:44;;;;;;;4.37;3.40;;;;;;;;;;10392414;28;20221;-72
2022/08/19 14:44:46;;;;;;;3.90;3.43;;;;;;;;;;10383707;28;20264;-73
2022/08/19 14:49:49;;;;;;;3.60;3.30;;;;;;;;;;10373964;28;20255;-72
2022/08/19 14:54:51;;;;;;;5.00;3.50;;;;;;;;;;10389499;28;20252;-72
2022/08/19 14:59:56;;;;;;;4.80;4.07;;;;;;;;;;10386951;28;20311;-70
2022/08/19 15:04:57;;;;;;;5.80;3.60;;;;;;;;;;10393145;28;20289;-71
2022/08/19 15:09:58;;;;;;;4.67;4.37;;;;;;;;;;10388901;28;20283;-71
2022/08/19 15:15:00;;;;;;;4.10;3.67;;;;;;;;;;10402611;28;20220;-72
2022/08/19 15:20:01;;;;;;;4.93;4.40;;;;;;;;;;10387755;28;20252;-72
2022/08/19 15:25:03;;;;;;;5.37;4.03;;;;;;;;;;10386948;28;20735;-73
2022/08/19 15:30:04;;;;;;;5.70;4.03;;;;;;;;;;10393385;28;20224;-71
2022/08/19 15:35:09;;;;;;;5.03;4.00;;;;;;;;;;10385838;28;20282;-69
2022/08/19 15:40:11;;;;;;;4.30;3.90;;;;;;;;;;10394972;28;20247;-70
2022/08/19 15:45:13;;;;;;;8.70;3.70;;;;;;;;;;10401144;28;20220;-69
2022/08/19 15:50:20;;;;;;;4.10;3.40;;;;;;;;;;10407433;28;20662;-72
2022/08/19 15:55:22;;;;;;;4.10;3.70;;;;;;;;;;10408822;28;20195;-72
2022/08/19 16:11:02;;;;;;;4.40;3.77;;;;;;;;;;10401310;28;20239;-74
2022/08/19 16:16:03;;;;;;;4.27;3.87;;;;;;;;;;10400258;28;20220;-72
2022/08/19 16:21:06;;;;;;;4.57;3.83;;;;;;;;;;10408671;28;20231;-72
2022/08/19 16:26:08;;;;;;;4.57;4.07;;;;;;;;;;10397277;28;20260;-71
2022/08/19 16:31:10;;;;;;;4.00;3.70;;;;;;;;;;10399004;28;20760;-73
2022/08/19 16:36:11;;;;;;;5.70;4.17;;;;;;;;;;10391836;28;20230;-72
2022/08/19 16:41:16;;;;;;;5.53;4.50;;;;;;;;;;10408534;28;20311;-71
2022/08/19 16:46:18;;;;;;;6.57;4.13;;;;;;;;;;10391566;28;20323;-71
2022/08/19 16:51:20;;;;;;;8.00;4.30;;;;;;;;;;10397550;28;20227;-71
2022/08/19 16:56:21;;;;;;;8.23;4.57;;;;;;;;;;10392896;28;20224;-73
2022/08/19 17:01:23;;;;;;;5.30;4.80;;;;;;;;;;10400184;28;20240;-73
2022/08/19 17:06:27;;;;;;;5.60;4.33;;;;;;;;;;10404623;28;20236;-70
2022/08/19 17:11:31;;;;;;;7.67;4.30;;;;;;;;;;10398565;28;20213;-69
2022/08/19 17:16:33;;;;;;;5.17;4.67;;;;;;;;;;10387241;28;20252;-72
2022/08/19 17:21:36;;;;;;;6.20;4.57;;;;;;;;;;10397133;28;20651;-71
2022/08/19 17:26:37;;;;;;;6.90;5.00;;;;;;;;;;10398685;28;20266;-69
2022/08/19 17:31:38;;;;;;;6.37;5.07;;;;;;;;;;10387756;28;20231;-69
2022/08/19 17:36:40;;;;;;;5.90;5.33;;;;;;;;;;10403505;28;20255;-69
2022/08/19 17:41:43;;;;;;;6.03;5.43;;;;;;;;;;10384029;28;20248;-68
2022/08/19 17:46:45;;;;;;;5.00;4.60;;;;;;;;;;10403735;28;20310;-70
2022/08/19 17:51:48;;;;;;;5.13;4.63;;;;;;;;;;10405124;28;20229;-72
2022/08/19 17:56:49;;;;;;;5.93;5.33;;;;;;;;;;10409879;28;20289;-72
2022/08/19 18:01:50;;;;;;;10.70;5.13;;;;;;;;;;10387480;28;20285;-70
2022/08/19 18:06:52;;;;;;;8.27;4.83;;;;;;;;;;10388058;28;20328;-70
2022/08/19 18:11:55;;;;;;;8.57;4.60;;;;;;;;;;10398740;28;20227;-70
2022/08/19 18:16:57;;;;;;;6.63;4.50;;;;;;;;;;10376751;28;21268;-69
2022/08/19 18:21:58;;;;;;;6.57;4.40;;;;;;;;;;10392502;28;20219;-69
2022/08/19 18:26:59;;;;;;;4.10;3.80;;;;;;;;;;10398955;28;20272;-68
2022/08/19 18:32:00;;;;;;;4.30;3.90;;;;;;;;;;10399415;28;20706;-69
2022/08/19 18:37:01;;;;;;;4.97;3.70;;;;;;;;;;10377958;28;20308;-70
2022/08/19 18:52:42;;;;;;;5.13;4.63;;;;;;;;;;10394276;28;20222;-71
2022/08/19 18:57:43;;;;;;;4.97;4.40;;;;;;;;;;10401064;28;20702;-67
2022/08/19 19:02:45;;;;;;;5.50;5.00;;;;;;;;;;10405373;28;20223;-68
2022/08/19 19:07:47;;;;;;;5.57;4.33;;;;;;;;;;10393509;28;20700;-66
2022/08/19 19:12:49;;;;;;;4.23;3.93;;;;;;;;;;10408566;28;20212;-68
2022/08/19 19:17:50;;;;;;;6.57;4.23;;;;;;;;;;10403487;28;20610;-66
2022/08/19 19:22:51;;;;;;;7.40;4.33;;;;;;;;;;10390864;28;20236;-67
2022/08/19 19:27:55;;;;;;;5.57;4.50;;;;;;;;;;10398147;28;20660;-67
2022/08/19 19:32:56;;;;;;;5.33;4.47;;;;;;;;;;10415378;28;20223;-66
2022/08/19 19:37:58;;;;;;;5.63;4.50;;;;;;;;;;10402126;28;20216;-65
2022/08/19 19:42:59;;;;;;;5.90;4.80;;;;;;;;;;10402130;28;20344;-68
2022/08/19 19:48:07;;;;;;;5.63;4.80;;;;;;;;;;10408801;28;20274;-69
2022/08/19 19:53:08;;;;;;;5.83;4.93;;;;;;;;;;10408680;28;20247;-68
2022/08/19 19:58:09;;;;;;;6.57;4.77;;;;;;;;;;10392940;28;20228;-67
2022/08/19 20:03:10;;;;;;;5.50;5.00;;;;;;;;;;10408002;28;20660;-67
2022/08/19 20:13:31;;;;;;;12.10;5.73;;;;;;;;;;10404930;28;20221;-68
2022/08/19 20:18:32;;;;;;;7.47;5.33;;;;;;;;;;10395097;28;20232;-69
2022/08/19 20:23:35;;;;;;;7.97;5.33;;;;;;;;;;10412438;28;20234;-69
2022/08/19 20:28:36;;;;;;;7.30;5.60;;;;;;;;;;10397706;28;20310;-69
2022/08/19 20:33:37;;;;;;;10.20;5.60;;;;;;;;;;10399628;28;20221;-68
2022/08/19 20:38:38;;;;;;;8.13;6.23;;;;;;;;;;10411730;28;20224;-70
2022/08/19 20:43:39;;;;;;;9.87;6.50;;;;;;;;;;10380748;28;20228;-68
2022/08/19 20:48:41;;;;;;;9.50;6.30;;;;;;;;;;10408481;28;20255;-71
2022/08/19 20:53:43;;;;;;;10.70;6.60;;;;;;;;;;10391195;28;20274;-70
2022/08/19 20:58:44;;;;;;;9.10;6.13;;;;;;;;;;10405909;28;20235;-74
2022/08/19 21:03:46;;;;;;;9.50;6.20;;;;;;;;;;10377200;28;20589;-74
2022/08/19 21:08:48;;;;;;;7.00;6.30;;;;;;;;;;10393700;28;20275;-74
2022/08/19 21:13:49;;;;;;;6.47;5.87;;;;;;;;;;10392820;28;20225;-74
2022/08/19 21:18:50;;;;;;;6.93;6.10;;;;;;;;;;10409369;28;20228;-73
2022/08/19 21:23:51;;;;;;;6.90;6.20;;;;;;;;;;10399752;28;20715;-73
2022/08/19 21:28:53;;;;;;;6.63;5.90;;;;;;;;;;10401482;28;20260;-73
2022/08/19 21:33:54;;;;;;;8.07;6.77;;;;;;;;;;10400253;28;20212;-74
2022/08/19 21:38:55;;;;;;;6.67;6.07;;;;;;;;;;10407370;28;20267;-73
2022/08/19 21:43:56;;;;;;;7.07;6.37;;;;;;;;;;10402013;28;20240;-73
2022/08/19 21:48:57;;;;;;;6.60;6.00;;;;;;;;;;10400877;28;20667;-73
2022/08/19 21:53:59;;;;;;;8.90;6.10;;;;;;;;;;10391637;28;20275;-74
2022/08/19 21:59:00;;;;;;;7.80;5.93;;;;;;;;;;10405039;28;20229;-73
2022/08/19 22:04:01;;;;;;;8.30;6.57;;;;;;;;;;10398980;28;20213;-72
2022/08/19 22:09:02;;;;;;;7.47;6.67;;;;;;;;;;10405024;28;20235;-72
2022/08/19 22:14:04;;;;;;;6.77;5.97;;;;;;;;;;10386952;28;20308;-73
2022/08/19 22:19:05;;;;;;;6.83;5.97;;;;;;;;;;10399604;28;20213;-74
2022/08/19 22:24:09;;;;;;;6.77;6.10;;;;;;;;;;10405100;28;20244;-74
2022/08/19 22:29:10;;;;;;;7.40;6.70;;;;;;;;;;10393499;28;20218;-73
2022/08/19 22:34:11;;;;;;;6.60;6.00;;;;;;;;;;10412000;28;20212;-73
2022/08/19 22:39:12;;;;;;;7.57;6.23;;;;;;;;;;10396677;28;20269;-74
2022/08/19 22:44:13;;;;;;;6.97;6.27;;;;;;;;;;10394847;28;20294;-73
2022/08/19 22:49:14;;;;;;;7.30;6.60;;;;;;;;;;10406000;28;20707;-74
2022/08/19 22:54:15;;;;;;;6.73;6.03;;;;;;;;;;10402339;28;20595;-76
2022/08/19 22:59:16;;;;;;;6.63;6.00;;;;;;;;;;10396960;28;20231;-76
2022/08/19 23:04:17;;;;;;;6.90;6.03;;;;;;;;;;10396413;28;20216;-75
2022/08/19 23:09:18;;;;;;;7.17;6.10;;;;;;;;;;10395705;28;20209;-74
2022/08/19 23:14:19;;;;;;;7.23;5.77;;;;;;;;;;10402629;28;20231;-74
2022/08/19 23:19:20;;;;;;;7.03;6.30;;;;;;;;;;10403608;28;20587;-76
2022/08/19 23:24:21;;;;;;;7.90;6.17;;;;;;;;;;10393738;28;20744;-76
2022/08/19 23:34:42;;;;;;;6.50;5.90;;;;;;;;;;10395442;28;20240;-75
2022/08/19 23:39:43;;;;;;;6.73;6.13;;;;;;;;;;10400917;28;20244;-76
2022/08/19 23:44:44;;;;;;;6.73;5.93;;;;;;;;;;10390377;28;20229;-74
2022/08/19 23:49:46;;;;;;;6.07;5.47;;;;;;;;;;10400154;28;20231;-74
2022/08/19 23:54:47;;;;;;;7.27;6.37;;;;;;;;;;10395634;28;20239;-75
2022/08/19 23:59:48;;;;;;;5.73;5.20;;;;;;;;;;10409711;28;20228;-74
